sensor_id;sensor_type;location;lat;lon;timestamp;pressure;altitude;pressure_sealevel;temperature;humidity
9225;BME280;4647;48.072;11.616;2023-03-03T00:00:44;95311.16;;;-1.43;87.11
9225;BME280;4647;48.072;11.616;2023-03-03T00:03:19;95305.31;;;-1.36;86.95
9225;BME280;4647;48.072;11.616;2023-03-03T00:05:48;95301.44;;;-1.39;86.50
9225;BME280;4647;48.072;11.616;2023-03-03T00:08:17;95307.84;;;-1.40;86.80
9225;BME280;4647;48.072;11.616;2023-03-03T00:10:46;95301.09;;;-1.37;86.84
9225;BME280;4647;48.072;11.616;2023-03-03T00:13:17;95303.66;;;-1.41;86.85
9225;BME280;4647;48.072;11.616;2023-03-03T00:15:46;95301.84;;;-1.49;86.96
9225;BME280;4647;48.072;11.616;2023-03-03T00:18:27;95306.06;;;-1.48;86.85
9225;BME280;4647;48.072;11.616;2023-03-03T00:20:59;95309.50;;;-1.47;86.79
9225;BME280;4647;48.072;11.616;2023-03-03T00:23:30;95307.16;;;-1.49;86.84
9225;BME280;4647;48.072;11.616;2023-03-03T00:26:15;95304.50;;;-1.49;86.81
9225;BME280;4647;48.072;11.616;2023-03-03T00:28:49;95307.63;;;-1.47;86.84
9225;BME280;4647;48.072;11.616;2023-03-03T00:31:19;95310.81;;;-1.53;87.06
9225;BME280;4647;48.072;11.616;2023-03-03T00:33:52;95306.19;;;-1.57;87.24
9225;BME280;4647;48.072;11.616;2023-03-03T00:36:28;95310.94;;;-1.50;87.24
9225;BME280;4647;48.072;11.616;2023-03-03T00:39:17;95310.06;;;-1.42;86.52
9225;BME280;4647;48.072;11.616;2023-03-03T00:41:46;95305.84;;;-1.55;86.55
9225;BME280;4647;48.072;11.616;2023-03-03T00:44:34;95305.81;;;-1.67;86.94
9225;BME280;4647;48.072;11.616;2023-03-03T00:47:27;95308.47;;;-1.79;88.15
9225;BME280;4647;48.072;11.616;2023-03-03T00:50:25;95309.56;;;-1.80;88.27
9225;BME280;4647;48.072;11.616;2023-03-03T00:53:12;95302.94;;;-1.74;87.91
9225;BME280;4647;48.072;11.616;2023-03-03T00:55:42;95312.69;;;-1.78;87.68
9225;BME280;4647;48.072;11.616;2023-03-03T00:58:11;95308.03;;;-1.81;87.79
9225;BME280;4647;48.072;11.616;2023-03-03T01:00:41;95316.44;;;-1.79;88.05
9225;BME280;4647;48.072;11.616;2023-03-03T01:03:13;95312.69;;;-1.66;87.71
9225;BME280;4647;48.072;11.616;2023-03-03T01:05:45;95314.25;;;-1.65;87.67
9225;BME280;4647;48.072;11.616;2023-03-03T01:08:14;95313.44;;;-1.66;87.59
9225;BME280;4647;48.072;11.616;2023-03-03T01:10:46;95317.56;;;-1.68;87.70
9225;BME280;4647;48.072;11.616;2023-03-03T01:13:16;95316.66;;;-1.72;87.42
9225;BME280;4647;48.072;11.616;2023-03-03T01:15:45;95323.09;;;-1.73;87.36
9225;BME280;4647;48.072;11.616;2023-03-03T01:18:14;95308.81;;;-1.69;87.69
9225;BME280;4647;48.072;11.616;2023-03-03T01:20:45;95308.16;;;-1.66;88.57
9225;BME280;4647;48.072;11.616;2023-03-03T01:23:14;95290.47;;;-1.37;89.53
9225;BME280;4647;48.072;11.616;2023-03-03T01:25:42;95311.47;;;-1.20;88.79
9225;BME280;4647;48.072;11.616;2023-03-03T01:28:11;95304.63;;;-1.45;87.91
9225;BME280;4647;48.072;11.616;2023-03-03T01:30:40;95303.41;;;-1.60;87.89
9225;BME280;4647;48.072;11.616;2023-03-03T01:33:08;95297.00;;;-1.59;88.03
9225;BME280;4647;48.072;11.616;2023-03-03T01:35:37;95304.41;;;-1.65;87.74
9225;BME280;4647;48.072;11.616;2023-03-03T01:38:08;95298.97;;;-1.68;87.35
9225;BME280;4647;48.072;11.616;2023-03-03T01:40:36;95299.97;;;-1.61;87.62
9225;BME280;4647;48.072;11.616;2023-03-03T01:43:05;95300.72;;;-1.72;87.73
9225;BME280;4647;48.072;11.616;2023-03-03T01:45:44;95296.53;;;-1.73;87.49
9225;BME280;4647;48.072;11.616;2023-03-03T01:48:36;95294.53;;;-1.76;87.46
9225;BME280;4647;48.072;11.616;2023-03-03T01:51:14;95295.84;;;-1.82;87.38
9225;BME280;4647;48.072;11.616;2023-03-03T01:53:51;95290.44;;;-1.86;87.10
9225;BME280;4647;48.072;11.616;2023-03-03T01:56:22;95281.16;;;-1.80;87.05
9225;BME280;4647;48.072;11.616;2023-03-03T01:58:53;95277.28;;;-1.82;86.62
9225;BME280;4647;48.072;11.616;2023-03-03T02:01:25;95249.22;;;-2.17;86.74
9225;BME280;4647;48.072;11.616;2023-03-03T02:03:55;95289.53;;;-1.90;86.91
9225;BME280;4647;48.072;11.616;2023-03-03T02:06:26;95277.25;;;-1.95;86.61
9225;BME280;4647;48.072;11.616;2023-03-03T02:09:01;95287.41;;;-1.97;87.03
9225;BME280;4647;48.072;11.616;2023-03-03T02:11:34;95290.19;;;-1.93;86.78
9225;BME280;4647;48.072;11.616;2023-03-03T02:14:04;95285.09;;;-1.98;86.83
9225;BME280;4647;48.072;11.616;2023-03-03T02:16:32;95283.88;;;-2.01;87.07
9225;BME280;4647;48.072;11.616;2023-03-03T02:19:01;95291.19;;;-1.98;86.84
9225;BME280;4647;48.072;11.616;2023-03-03T02:21:29;95283.88;;;-2.01;86.74
9225;BME280;4647;48.072;11.616;2023-03-03T02:24:04;95285.53;;;-1.96;86.74
9225;BME280;4647;48.072;11.616;2023-03-03T02:26:39;95279.56;;;-1.93;86.50
9225;BME280;4647;48.072;11.616;2023-03-03T02:29:09;95285.78;;;-1.89;86.39
9225;BME280;4647;48.072;11.616;2023-03-03T02:31:38;95281.25;;;-1.89;86.36
9225;BME280;4647;48.072;11.616;2023-03-03T02:34:07;95278.28;;;-1.87;86.45
9225;BME280;4647;48.072;11.616;2023-03-03T02:36:38;95283.03;;;-1.80;86.22
9225;BME280;4647;48.072;11.616;2023-03-03T02:39:10;95281.03;;;-1.83;86.24
9225;BME280;4647;48.072;11.616;2023-03-03T02:41:45;95284.13;;;-1.81;86.01
9225;BME280;4647;48.072;11.616;2023-03-03T02:44:16;95288.88;;;-1.75;85.88
9225;BME280;4647;48.072;11.616;2023-03-03T02:46:47;95290.66;;;-1.79;86.08
9225;BME280;4647;48.072;11.616;2023-03-03T02:49:19;95297.75;;;-1.83;86.25
9225;BME280;4647;48.072;11.616;2023-03-03T02:51:48;95290.56;;;-1.82;86.36
9225;BME280;4647;48.072;11.616;2023-03-03T02:54:18;95290.44;;;-1.74;86.22
9225;BME280;4647;48.072;11.616;2023-03-03T02:56:49;95285.69;;;-1.80;86.18
9225;BME280;4647;48.072;11.616;2023-03-03T02:59:18;95294.88;;;-1.78;86.17
9225;BME280;4647;48.072;11.616;2023-03-03T03:01:47;95290.78;;;-1.75;85.87
9225;BME280;4647;48.072;11.616;2023-03-03T03:04:17;95286.78;;;-1.81;85.95
9225;BME280;4647;48.072;11.616;2023-03-03T03:06:47;95274.69;;;-1.91;86.18
9225;BME280;4647;48.072;11.616;2023-03-03T03:09:16;95280.25;;;-1.84;86.38
9225;BME280;4647;48.072;11.616;2023-03-03T03:11:45;95275.38;;;-1.82;86.20
9225;BME280;4647;48.072;11.616;2023-03-03T03:14:16;95282.38;;;-1.77;86.03
9225;BME280;4647;48.072;11.616;2023-03-03T03:16:45;95277.94;;;-1.73;86.30
9225;BME280;4647;48.072;11.616;2023-03-03T03:19:13;95276.59;;;-1.67;86.10
9225;BME280;4647;48.072;11.616;2023-03-03T03:21:42;95275.19;;;-1.65;86.28
9225;BME280;4647;48.072;11.616;2023-03-03T03:24:10;95285.47;;;-1.51;86.86
9225;BME280;4647;48.072;11.616;2023-03-03T03:26:39;95275.72;;;-1.47;86.70
9225;BME280;4647;48.072;11.616;2023-03-03T03:29:07;95290.13;;;-1.36;86.65
9225;BME280;4647;48.072;11.616;2023-03-03T03:31:38;95275.63;;;-1.26;86.94
9225;BME280;4647;48.072;11.616;2023-03-03T03:34:11;95277.69;;;-1.19;87.23
9225;BME280;4647;48.072;11.616;2023-03-03T03:36:39;95293.66;;;-1.07;87.23
9225;BME280;4647;48.072;11.616;2023-03-03T03:39:07;95289.41;;;-0.96;87.46
9225;BME280;4647;48.072;11.616;2023-03-03T03:41:36;95291.97;;;-0.87;87.61
9225;BME280;4647;48.072;11.616;2023-03-03T03:44:05;95289.50;;;-0.80;87.49
9225;BME280;4647;48.072;11.616;2023-03-03T03:46:34;95298.25;;;-0.80;87.41
9225;BME280;4647;48.072;11.616;2023-03-03T03:49:05;95296.28;;;-0.95;87.92
9225;BME280;4647;48.072;11.616;2023-03-03T03:51:33;95295.44;;;-0.71;88.10
9225;BME280;4647;48.072;11.616;2023-03-03T03:54:05;95299.72;;;-0.54;87.66
9225;BME280;4647;48.072;11.616;2023-03-03T03:56:34;95297.03;;;-0.42;87.35
9225;BME280;4647;48.072;11.616;2023-03-03T03:59:04;95291.56;;;-0.34;86.97
9225;BME280;4647;48.072;11.616;2023-03-03T04:01:32;95292.25;;;-0.37;87.08
9225;BME280;4647;48.072;11.616;2023-03-03T04:04:01;95274.38;;;-0.36;87.38
9225;BME280;4647;48.072;11.616;2023-03-03T04:06:32;95286.72;;;-0.16;87.16
9225;BME280;4647;48.072;11.616;2023-03-03T04:09:01;95286.47;;;-0.11;87.23
9225;BME280;4647;48.072;11.616;2023-03-03T04:11:29;95286.06;;;0.03;87.46
9225;BME280;4647;48.072;11.616;2023-03-03T04:13:58;95291.41;;;0.03;87.27
9225;BME280;4647;48.072;11.616;2023-03-03T04:16:26;95286.94;;;0.07;87.24
9225;BME280;4647;48.072;11.616;2023-03-03T04:18:59;95292.19;;;0.04;87.33
9225;BME280;4647;48.072;11.616;2023-03-03T04:21:28;95292.09;;;0.16;87.28
9225;BME280;4647;48.072;11.616;2023-03-03T04:23:59;95293.94;;;0.27;87.11
9225;BME280;4647;48.072;11.616;2023-03-03T04:26:27;95295.63;;;0.36;86.73
9225;BME280;4647;48.072;11.616;2023-03-03T04:28:56;95301.91;;;0.27;86.72
9225;BME280;4647;48.072;11.616;2023-03-03T04:31:26;95296.94;;;0.26;86.38
9225;BME280;4647;48.072;11.616;2023-03-03T04:33:54;95299.69;;;0.29;87.04
9225;BME280;4647;48.072;11.616;2023-03-03T04:36:23;95287.19;;;0.18;87.07
9225;BME280;4647;48.072;11.616;2023-03-03T04:38:54;95297.53;;;0.35;87.15
9225;BME280;4647;48.072;11.616;2023-03-03T04:41:25;95304.84;;;0.38;86.96
9225;BME280;4647;48.072;11.616;2023-03-03T04:43:53;95306.38;;;0.39;86.82
9225;BME280;4647;48.072;11.616;2023-03-03T04:46:22;95302.00;;;0.47;86.89
9225;BME280;4647;48.072;11.616;2023-03-03T04:48:51;95297.88;;;0.49;86.68
9225;BME280;4647;48.072;11.616;2023-03-03T04:51:20;95290.91;;;0.45;86.90
9225;BME280;4647;48.072;11.616;2023-03-03T04:53:48;95293.69;;;0.48;86.88
9225;BME280;4647;48.072;11.616;2023-03-03T04:56:16;95310.88;;;0.51;86.75
9225;BME280;4647;48.072;11.616;2023-03-03T04:58:48;95291.66;;;0.45;86.96
9225;BME280;4647;48.072;11.616;2023-03-03T05:01:16;95292.56;;;0.49;86.92
9225;BME280;4647;48.072;11.616;2023-03-03T05:03:44;95299.50;;;0.54;86.99
9225;BME280;4647;48.072;11.616;2023-03-03T05:06:13;95286.53;;;0.52;86.79
9225;BME280;4647;48.072;11.616;2023-03-03T05:08:43;95296.31;;;0.64;86.82
9225;BME280;4647;48.072;11.616;2023-03-03T05:11:11;95292.44;;;0.61;86.48
9225;BME280;4647;48.072;11.616;2023-03-03T05:13:40;95295.19;;;0.65;87.05
9225;BME280;4647;48.072;11.616;2023-03-03T05:16:11;95295.03;;;0.74;86.51
9225;BME280;4647;48.072;11.616;2023-03-03T05:18:40;95292.38;;;0.74;86.62
9225;BME280;4647;48.072;11.616;2023-03-03T05:21:09;95289.94;;;0.84;86.38
9225;BME280;4647;48.072;11.616;2023-03-03T05:23:38;95297.09;;;0.80;86.50
9225;BME280;4647;48.072;11.616;2023-03-03T05:26:07;95293.50;;;0.73;86.70
9225;BME280;4647;48.072;11.616;2023-03-03T05:28:35;95299.59;;;0.73;86.19
9225;BME280;4647;48.072;11.616;2023-03-03T05:31:04;95305.69;;;0.74;86.91
9225;BME280;4647;48.072;11.616;2023-03-03T05:33:35;95300.94;;;0.83;86.55
9225;BME280;4647;48.072;11.616;2023-03-03T05:36:04;95292.69;;;0.88;86.49
9225;BME280;4647;48.072;11.616;2023-03-03T05:38:32;95300.94;;;0.83;86.50
9225;BME280;4647;48.072;11.616;2023-03-03T05:41:01;95314.19;;;0.95;85.99
9225;BME280;4647;48.072;11.616;2023-03-03T05:43:29;95289.22;;;0.87;86.04
9225;BME280;4647;48.072;11.616;2023-03-03T05:45:58;95314.28;;;0.99;85.83
9225;BME280;4647;48.072;11.616;2023-03-03T05:48:26;95319.25;;;1.00;86.48
9225;BME280;4647;48.072;11.616;2023-03-03T05:50:59;95314.91;;;1.11;85.68
9225;BME280;4647;48.072;11.616;2023-03-03T05:53:28;95326.00;;;1.13;85.59
9225;BME280;4647;48.072;11.616;2023-03-03T05:55:56;95318.28;;;1.08;85.71
9225;BME280;4647;48.072;11.616;2023-03-03T05:58:25;95330.06;;;1.07;86.29
9225;BME280;4647;48.072;11.616;2023-03-03T06:00:54;95337.59;;;0.86;86.22
9225;BME280;4647;48.072;11.616;2023-03-03T06:03:23;95326.06;;;0.82;86.58
9225;BME280;4647;48.072;11.616;2023-03-03T06:05:52;95329.34;;;0.75;85.99
9225;BME280;4647;48.072;11.616;2023-03-03T06:08:23;95329.78;;;0.77;86.95
9225;BME280;4647;48.072;11.616;2023-03-03T06:10:52;95330.63;;;0.97;86.49
9225;BME280;4647;48.072;11.616;2023-03-03T06:13:21;95326.38;;;1.12;85.81
9225;BME280;4647;48.072;11.616;2023-03-03T06:15:49;95332.19;;;1.17;85.66
9225;BME280;4647;48.072;11.616;2023-03-03T06:18:18;95336.25;;;1.27;85.23
9225;BME280;4647;48.072;11.616;2023-03-03T06:20:50;95332.31;;;1.21;85.47
9225;BME280;4647;48.072;11.616;2023-03-03T06:23:19;95331.09;;;1.18;85.73
9225;BME280;4647;48.072;11.616;2023-03-03T06:25:51;95345.66;;;1.21;85.47
9225;BME280;4647;48.072;11.616;2023-03-03T06:28:19;95344.38;;;0.99;85.72
9225;BME280;4647;48.072;11.616;2023-03-03T06:30:52;95362.00;;;1.04;86.41
9225;BME280;4647;48.072;11.616;2023-03-03T06:33:21;95327.06;;;0.93;85.63
9225;BME280;4647;48.072;11.616;2023-03-03T06:35:49;95354.94;;;1.11;85.21
9225;BME280;4647;48.072;11.616;2023-03-03T06:38:18;95358.47;;;1.15;84.82
9225;BME280;4647;48.072;11.616;2023-03-03T06:40:49;95359.56;;;1.14;84.71
9225;BME280;4647;48.072;11.616;2023-03-03T06:43:18;95357.38;;;1.01;85.63
9225;BME280;4647;48.072;11.616;2023-03-03T06:45:46;95356.06;;;1.10;85.78
9225;BME280;4647;48.072;11.616;2023-03-03T06:48:15;95355.91;;;1.03;86.29
9225;BME280;4647;48.072;11.616;2023-03-03T06:50:43;95368.56;;;1.06;86.61
9225;BME280;4647;48.072;11.616;2023-03-03T06:53:13;95360.28;;;1.11;86.53
9225;BME280;4647;48.072;11.616;2023-03-03T06:55:42;95366.03;;;1.29;86.52
9225;BME280;4647;48.072;11.616;2023-03-03T06:58:15;95359.25;;;1.51;86.15
9225;BME280;4647;48.072;11.616;2023-03-03T07:00:45;95358.63;;;1.58;85.84
9225;BME280;4647;48.072;11.616;2023-03-03T07:03:20;95363.81;;;1.50;85.35
9225;BME280;4647;48.072;11.616;2023-03-03T07:05:51;95375.31;;;1.70;85.72
9225;BME280;4647;48.072;11.616;2023-03-03T07:08:21;95372.78;;;1.77;84.93
9225;BME280;4647;48.072;11.616;2023-03-03T07:10:51;95373.75;;;1.34;85.88
9225;BME280;4647;48.072;11.616;2023-03-03T07:13:24;95372.41;;;1.60;85.42
9225;BME280;4647;48.072;11.616;2023-03-03T07:15:53;95375.19;;;1.47;86.47
9225;BME280;4647;48.072;11.616;2023-03-03T07:18:35;95381.25;;;1.64;85.38
9225;BME280;4647;48.072;11.616;2023-03-03T07:21:14;95375.50;;;1.81;84.80
9225;BME280;4647;48.072;11.616;2023-03-03T07:23:44;95377.63;;;1.91;84.68
9225;BME280;4647;48.072;11.616;2023-03-03T07:26:15;95382.63;;;1.93;84.72
9225;BME280;4647;48.072;11.616;2023-03-03T07:28:51;95387.31;;;1.80;85.00
9225;BME280;4647;48.072;11.616;2023-03-03T07:31:29;95397.25;;;1.99;84.94
9225;BME280;4647;48.072;11.616;2023-03-03T07:33:59;95389.88;;;1.92;84.42
9225;BME280;4647;48.072;11.616;2023-03-03T07:36:30;95397.66;;;1.81;84.49
9225;BME280;4647;48.072;11.616;2023-03-03T07:39:00;95407.88;;;1.60;85.23
9225;BME280;4647;48.072;11.616;2023-03-03T07:41:30;95404.25;;;1.88;85.14
9225;BME280;4647;48.072;11.616;2023-03-03T07:44:12;95402.03;;;2.09;84.93
9225;BME280;4647;48.072;11.616;2023-03-03T07:46:46;95391.06;;;1.95;83.37
9225;BME280;4647;48.072;11.616;2023-03-03T07:49:21;95407.72;;;2.07;85.13
9225;BME280;4647;48.072;11.616;2023-03-03T07:51:53;95412.28;;;1.88;83.25
9225;BME280;4647;48.072;11.616;2023-03-03T07:54:29;95409.06;;;1.98;84.42
9225;BME280;4647;48.072;11.616;2023-03-03T07:57:06;95416.06;;;1.87;84.68
9225;BME280;4647;48.072;11.616;2023-03-03T07:59:45;95420.22;;;1.84;84.38
9225;BME280;4647;48.072;11.616;2023-03-03T08:05:26;95416.16;;;2.09;84.05
9225;BME280;4647;48.072;11.616;2023-03-03T08:08:09;95421.94;;;2.31;83.77
9225;BME280;4647;48.072;11.616;2023-03-03T08:10:45;95419.47;;;2.41;83.15
9225;BME280;4647;48.072;11.616;2023-03-03T08:13:19;95425.63;;;2.65;83.92
9225;BME280;4647;48.072;11.616;2023-03-03T08:15:59;95420.56;;;2.83;81.93
9225;BME280;4647;48.072;11.616;2023-03-03T08:18:35;95417.88;;;2.37;82.95
9225;BME280;4647;48.072;11.616;2023-03-03T08:21:12;95430.00;;;2.34;83.86
9225;BME280;4647;48.072;11.616;2023-03-03T08:23:41;95421.69;;;2.59;81.97
9225;BME280;4647;48.072;11.616;2023-03-03T08:26:10;95419.81;;;2.82;82.51
9225;BME280;4647;48.072;11.616;2023-03-03T08:28:39;95416.25;;;2.97;81.16
9225;BME280;4647;48.072;11.616;2023-03-03T08:31:11;95418.38;;;3.34;80.42
9225;BME280;4647;48.072;11.616;2023-03-03T08:33:39;95399.44;;;3.46;80.21
9225;BME280;4647;48.072;11.616;2023-03-03T08:36:08;95412.66;;;3.62;79.79
9225;BME280;4647;48.072;11.616;2023-03-03T08:38:37;95416.09;;;3.89;78.84
9225;BME280;4647;48.072;11.616;2023-03-03T08:41:06;95417.09;;;4.07;78.70
9225;BME280;4647;48.072;11.616;2023-03-03T08:43:34;95426.75;;;4.12;76.71
9225;BME280;4647;48.072;11.616;2023-03-03T08:46:04;95424.03;;;4.42;77.48
9225;BME280;4647;48.072;11.616;2023-03-03T08:48:37;95420.50;;;4.34;76.44
9225;BME280;4647;48.072;11.616;2023-03-03T08:51:05;95429.59;;;4.59;77.04
9225;BME280;4647;48.072;11.616;2023-03-03T08:53:34;95431.03;;;4.87;74.63
9225;BME280;4647;48.072;11.616;2023-03-03T08:56:03;95428.16;;;4.69;73.56
9225;BME280;4647;48.072;11.616;2023-03-03T08:58:31;95437.72;;;4.67;74.04
9225;BME280;4647;48.072;11.616;2023-03-03T09:01:00;95438.56;;;4.07;73.96
9225;BME280;4647;48.072;11.616;2023-03-03T09:03:28;95440.69;;;3.42;75.58
9225;BME280;4647;48.072;11.616;2023-03-03T09:05:59;95445.19;;;3.60;75.85
9225;BME280;4647;48.072;11.616;2023-03-03T09:08:28;95449.97;;;3.74;76.26
9225;BME280;4647;48.072;11.616;2023-03-03T09:10:57;95439.19;;;4.27;73.57
9225;BME280;4647;48.072;11.616;2023-03-03T09:13:28;95450.19;;;4.18;72.17
9225;BME280;4647;48.072;11.616;2023-03-03T09:15:57;95446.88;;;4.02;72.81
9225;BME280;4647;48.072;11.616;2023-03-03T09:18:30;95442.19;;;3.92;73.82
9225;BME280;4647;48.072;11.616;2023-03-03T09:21:16;95442.19;;;3.65;74.63
9225;BME280;4647;48.072;11.616;2023-03-03T09:23:49;95452.00;;;3.81;74.05
9225;BME280;4647;48.072;11.616;2023-03-03T09:26:28;95455.38;;;4.34;72.85
9225;BME280;4647;48.072;11.616;2023-03-03T09:29:10;95449.22;;;4.67;72.09
9225;BME280;4647;48.072;11.616;2023-03-03T09:31:46;95442.88;;;4.82;70.24
9225;BME280;4647;48.072;11.616;2023-03-03T09:34:20;95454.34;;;5.20;69.46
9225;BME280;4647;48.072;11.616;2023-03-03T09:36:53;95408.78;;;4.86;69.80
9225;BME280;4647;48.072;11.616;2023-03-03T09:39:25;95457.31;;;5.52;68.43
9225;BME280;4647;48.072;11.616;2023-03-03T09:42:17;95458.53;;;5.65;67.87
9225;BME280;4647;48.072;11.616;2023-03-03T09:45:05;95461.72;;;5.78;67.27
9225;BME280;4647;48.072;11.616;2023-03-03T09:47:46;95474.63;;;5.58;66.90
9225;BME280;4647;48.072;11.616;2023-03-03T09:50:27;95446.47;;;4.97;68.31
9225;BME280;4647;48.072;11.616;2023-03-03T09:53:11;95475.91;;;4.90;69.60
9225;BME280;4647;48.072;11.616;2023-03-03T09:55:49;95475.81;;;5.20;69.47
9225;BME280;4647;48.072;11.616;2023-03-03T09:58:33;95472.88;;;5.80;66.77
9225;BME280;4647;48.072;11.616;2023-03-03T10:01:13;95485.69;;;5.49;66.77
9225;BME280;4647;48.072;11.616;2023-03-03T10:04:13;95490.31;;;5.08;68.44
9225;BME280;4647;48.072;11.616;2023-03-03T10:06:46;95488.72;;;4.70;69.76
9225;BME280;4647;48.072;11.616;2023-03-03T10:09:38;95484.72;;;5.24;67.96
9225;BME280;4647;48.072;11.616;2023-03-03T10:12:16;95481.34;;;5.85;66.27
9225;BME280;4647;48.072;11.616;2023-03-03T10:14:58;95480.72;;;5.99;65.28
9225;BME280;4647;48.072;11.616;2023-03-03T10:17:39;95489.78;;;5.84;66.12
9225;BME280;4647;48.072;11.616;2023-03-03T10:20:27;95491.44;;;5.92;65.62
9225;BME280;4647;48.072;11.616;2023-03-03T10:23:07;95497.41;;;6.30;64.88
9225;BME280;4647;48.072;11.616;2023-03-03T10:25:52;95497.16;;;6.56;63.09
9225;BME280;4647;48.072;11.616;2023-03-03T10:28:34;95473.78;;;6.74;62.14
9225;BME280;4647;48.072;11.616;2023-03-03T10:31:15;95499.72;;;6.28;63.19
9225;BME280;4647;48.072;11.616;2023-03-03T10:33:55;95505.09;;;5.76;65.24
9225;BME280;4647;48.072;11.616;2023-03-03T10:36:41;95492.03;;;6.30;63.69
9225;BME280;4647;48.072;11.616;2023-03-03T10:39:24;95503.50;;;5.24;66.98
9225;BME280;4647;48.072;11.616;2023-03-03T10:42:15;95504.38;;;5.83;65.59
9225;BME280;4647;48.072;11.616;2023-03-03T10:44:56;95490.75;;;6.06;64.93
9225;BME280;4647;48.072;11.616;2023-03-03T10:47:49;95498.38;;;6.73;63.06
9225;BME280;4647;48.072;11.616;2023-03-03T10:50:29;95485.34;;;6.82;62.88
9225;BME280;4647;48.072;11.616;2023-03-03T10:53:17;95486.53;;;6.99;62.78
9225;BME280;4647;48.072;11.616;2023-03-03T10:55:56;95484.66;;;7.21;61.58
9225;BME280;4647;48.072;11.616;2023-03-03T10:58:53;95481.22;;;7.27;60.97
9225;BME280;4647;48.072;11.616;2023-03-03T11:01:29;95486.59;;;7.24;60.56
9225;BME280;4647;48.072;11.616;2023-03-03T11:04:17;95486.25;;;7.72;60.02
9225;BME280;4647;48.072;11.616;2023-03-03T11:06:53;95486.63;;;7.74;59.17
9225;BME280;4647;48.072;11.616;2023-03-03T11:09:41;95485.41;;;7.07;60.82
9225;BME280;4647;48.072;11.616;2023-03-03T11:12:25;95442.63;;;6.84;61.23
9225;BME280;4647;48.072;11.616;2023-03-03T11:15:12;95497.06;;;7.57;60.63
9225;BME280;4647;48.072;11.616;2023-03-03T11:17:54;95502.06;;;7.87;59.44
9225;BME280;4647;48.072;11.616;2023-03-03T11:20:35;95504.34;;;7.46;60.24
9225;BME280;4647;48.072;11.616;2023-03-03T11:23:19;95504.34;;;7.57;60.19
9225;BME280;4647;48.072;11.616;2023-03-03T11:25:56;95507.34;;;7.09;60.97
9225;BME280;4647;48.072;11.616;2023-03-03T11:28:46;95500.88;;;7.78;58.81
9225;BME280;4647;48.072;11.616;2023-03-03T11:31:29;95501.25;;;8.01;57.75
9225;BME280;4647;48.072;11.616;2023-03-03T11:34:04;95504.00;;;7.83;58.46
9225;BME280;4647;48.072;11.616;2023-03-03T11:36:41;95501.28;;;8.05;56.62
9225;BME280;4647;48.072;11.616;2023-03-03T11:39:15;95500.47;;;8.15;57.33
9225;BME280;4647;48.072;11.616;2023-03-03T11:41:52;95493.50;;;8.31;56.53
9225;BME280;4647;48.072;11.616;2023-03-03T11:44:29;95491.97;;;8.20;57.16
9225;BME280;4647;48.072;11.616;2023-03-03T11:47:05;95499.56;;;8.75;55.69
9225;BME280;4647;48.072;11.616;2023-03-03T11:49:41;95492.16;;;9.00;54.96
9225;BME280;4647;48.072;11.616;2023-03-03T11:52:21;95486.34;;;8.95;54.38
9225;BME280;4647;48.072;11.616;2023-03-03T11:54:55;95471.22;;;7.67;58.07
9225;BME280;4647;48.072;11.616;2023-03-03T11:57:31;95469.28;;;7.28;59.56
9225;BME280;4647;48.072;11.616;2023-03-03T12:00:14;95470.47;;;7.84;58.37
9225;BME280;4647;48.072;11.616;2023-03-03T12:02:57;95463.56;;;9.03;55.15
9225;BME280;4647;48.072;11.616;2023-03-03T12:05:40;95463.44;;;9.24;53.88
9225;BME280;4647;48.072;11.616;2023-03-03T12:08:21;95461.06;;;9.30;54.51
9225;BME280;4647;48.072;11.616;2023-03-03T12:10:59;95468.66;;;8.86;55.96
9225;BME280;4647;48.072;11.616;2023-03-03T12:13:36;95469.53;;;8.58;56.38
9225;BME280;4647;48.072;11.616;2023-03-03T12:16:14;95453.47;;;7.94;58.38
9225;BME280;4647;48.072;11.616;2023-03-03T12:18:58;95451.56;;;7.91;59.39
9225;BME280;4647;48.072;11.616;2023-03-03T12:21:41;95453.25;;;8.80;56.97
9225;BME280;4647;48.072;11.616;2023-03-03T12:27:14;95457.44;;;8.88;55.45
9225;BME280;4647;48.072;11.616;2023-03-03T12:29:53;95456.53;;;8.14;57.33
9225;BME280;4647;48.072;11.616;2023-03-03T12:32:35;95459.94;;;8.54;56.18
9225;BME280;4647;48.072;11.616;2023-03-03T12:35:19;95458.91;;;9.07;54.92
9225;BME280;4647;48.072;11.616;2023-03-03T12:37:55;95455.88;;;9.53;54.03
9225;BME280;4647;48.072;11.616;2023-03-03T12:40:31;95465.63;;;9.40;52.66
9225;BME280;4647;48.072;11.616;2023-03-03T12:43:21;95449.59;;;9.11;53.21
9225;BME280;4647;48.072;11.616;2023-03-03T12:45:59;95450.72;;;8.30;56.05
9225;BME280;4647;48.072;11.616;2023-03-03T12:48:37;95451.28;;;8.87;55.08
9225;BME280;4647;48.072;11.616;2023-03-03T12:51:18;95451.38;;;9.36;53.04
9225;BME280;4647;48.072;11.616;2023-03-03T12:54:04;95456.53;;;9.71;52.54
9225;BME280;4647;48.072;11.616;2023-03-03T12:56:39;95448.50;;;9.02;54.75
9225;BME280;4647;48.072;11.616;2023-03-03T12:59:14;95452.59;;;9.28;54.18
9225;BME280;4647;48.072;11.616;2023-03-03T13:01:58;95443.75;;;9.68;52.85
9225;BME280;4647;48.072;11.616;2023-03-03T13:04:35;95453.16;;;9.57;52.39
9225;BME280;4647;48.072;11.616;2023-03-03T13:07:12;95452.81;;;9.51;52.67
9225;BME280;4647;48.072;11.616;2023-03-03T13:09:55;95446.66;;;9.43;52.71
9225;BME280;4647;48.072;11.616;2023-03-03T13:12:36;95445.88;;;9.50;53.07
9225;BME280;4647;48.072;11.616;2023-03-03T13:15:12;95448.84;;;9.11;53.04
9225;BME280;4647;48.072;11.616;2023-03-03T13:17:50;95443.34;;;9.21;52.80
9225;BME280;4647;48.072;11.616;2023-03-03T13:20:28;95453.16;;;8.94;54.05
9225;BME280;4647;48.072;11.616;2023-03-03T13:23:07;95450.16;;;8.81;54.81
9225;BME280;4647;48.072;11.616;2023-03-03T13:25:48;95450.63;;;8.58;55.25
9225;BME280;4647;48.072;11.616;2023-03-03T13:28:22;95451.97;;;9.02;53.91
9225;BME280;4647;48.072;11.616;2023-03-03T13:30:57;95456.00;;;8.66;54.33
9225;BME280;4647;48.072;11.616;2023-03-03T13:33:30;95423.78;;;8.09;55.53
9225;BME280;4647;48.072;11.616;2023-03-03T13:36:06;95436.44;;;8.26;55.69
9225;BME280;4647;48.072;11.616;2023-03-03T13:38:41;95445.94;;;8.70;54.79
9225;BME280;4647;48.072;11.616;2023-03-03T13:41:16;95445.31;;;8.41;55.22
9225;BME280;4647;48.072;11.616;2023-03-03T13:43:51;95442.69;;;8.09;56.11
9225;BME280;4647;48.072;11.616;2023-03-03T13:46:32;95447.69;;;7.96;57.23
9225;BME280;4647;48.072;11.616;2023-03-03T13:49:20;95446.19;;;7.81;57.18
9225;BME280;4647;48.072;11.616;2023-03-03T13:52:00;95433.47;;;7.10;59.46
9225;BME280;4647;48.072;11.616;2023-03-03T13:54:48;95429.63;;;7.11;59.77
9225;BME280;4647;48.072;11.616;2023-03-03T13:57:36;95416.16;;;7.32;58.92
9225;BME280;4647;48.072;11.616;2023-03-03T14:00:18;95411.94;;;7.38;59.18